sensor_id;sensor_type;location;lat;lon;timestamp;P1;durP1;ratioP1;P2;durP2;ratioP2
21825;SDS011;11075;47.944;11.776;2023-03-19T00:00:41;12.77;;;6.30;;
21825;SDS011;11075;47.944;11.776;2023-03-19T00:03:08;8.63;;;5.67;;
21825;SDS011;11075;47.944;11.776;2023-03-19T00:05:34;14.33;;;6.40;;
21825;SDS011;11075;47.944;11.776;2023-03-19T00:08:01;13.33;;;6.33;;
21825;SDS011;11075;47.944;11.776;2023-03-19T00:10:28;14.07;;;6.43;;
21825;SDS011;11075;47.944;11.776;2023-03-19T00:12:55;9.53;;;5.33;;
21825;SDS011;11075;47.944;11.776;2023-03-19T00:15:22;12.13;;;5.43;;
21825;SDS011;11075;47.944;11.776;2023-03-19T00:17:49;14.20;;;6.13;;
21825;SDS011;11075;47.944;11.776;2023-03-19T00:20:16;14.00;;;6.00;;
21825;SDS011;11075;47.944;11.776;2023-03-19T00:22:45;10.37;;;5.80;;
21825;SDS011;11075;47.944;11.776;2023-03-19T00:25:12;12.07;;;6.07;;
21825;SDS011;11075;47.944;11.776;2023-03-19T00:27:39;10.27;;;5.80;;
21825;SDS011;11075;47.944;11.776;2023-03-19T00:30:06;10.40;;;5.73;;
21825;SDS011;11075;47.944;11.776;2023-03-19T00:32:34;14.60;;;5.63;;
21825;SDS011;11075;47.944;11.776;2023-03-19T00:35:02;8.53;;;5.73;;
21825;SDS011;11075;47.944;11.776;2023-03-19T00:37:32;9.57;;;5.33;;
21825;SDS011;11075;47.944;11.776;2023-03-19T00:39:59;10.27;;;5.90;;
21825;SDS011;11075;47.944;11.776;2023-03-19T00:42:26;12.17;;;5.97;;
21825;SDS011;11075;47.944;11.776;2023-03-19T00:44:53;16.47;;;6.67;;
21825;SDS011;11075;47.944;11.776;2023-03-19T00:47:20;13.00;;;6.57;;
21825;SDS011;11075;47.944;11.776;2023-03-19T00:49:48;12.47;;;6.00;;
21825;SDS011;11075;47.944;11.776;2023-03-19T00:52:15;14.83;;;7.10;;
21825;SDS011;11075;47.944;11.776;2023-03-19T00:54:41;13.80;;;6.87;;
21825;SDS011;11075;47.944;11.776;2023-03-19T00:57:08;16.00;;;6.77;;
21825;SDS011;11075;47.944;11.776;2023-03-19T00:59:35;9.97;;;5.77;;
21825;SDS011;11075;47.944;11.776;2023-03-19T01:02:02;9.93;;;6.33;;
21825;SDS011;11075;47.944;11.776;2023-03-19T01:04:29;13.03;;;5.97;;
21825;SDS011;11075;47.944;11.776;2023-03-19T01:06:57;11.73;;;5.80;;
21825;SDS011;11075;47.944;11.776;2023-03-19T01:09:25;13.00;;;5.90;;
21825;SDS011;11075;47.944;11.776;2023-03-19T01:11:52;14.93;;;7.07;;
21825;SDS011;11075;47.944;11.776;2023-03-19T01:14:19;12.70;;;8.07;;
21825;SDS011;11075;47.944;11.776;2023-03-19T01:16:46;22.70;;;7.83;;
21825;SDS011;11075;47.944;11.776;2023-03-19T01:19:14;15.20;;;6.87;;
21825;SDS011;11075;47.944;11.776;2023-03-19T01:21:42;10.43;;;6.17;;
21825;SDS011;11075;47.944;11.776;2023-03-19T01:24:14;11.17;;;6.27;;
21825;SDS011;11075;47.944;11.776;2023-03-19T01:26:44;10.77;;;6.60;;
21825;SDS011;11075;47.944;11.776;2023-03-19T01:29:20;14.53;;;6.50;;
21825;SDS011;11075;47.944;11.776;2023-03-19T01:31:48;12.43;;;6.83;;
21825;SDS011;11075;47.944;11.776;2023-03-19T01:34:35;15.00;;;7.53;;
21825;SDS011;11075;47.944;11.776;2023-03-19T01:37:10;12.53;;;6.13;;
21825;SDS011;11075;47.944;11.776;2023-03-19T01:39:39;9.97;;;6.10;;
21825;SDS011;11075;47.944;11.776;2023-03-19T01:42:10;12.80;;;6.60;;
21825;SDS011;11075;47.944;11.776;2023-03-19T01:44:47;13.00;;;6.50;;
21825;SDS011;11075;47.944;11.776;2023-03-19T01:47:36;9.67;;;6.20;;
21825;SDS011;11075;47.944;11.776;2023-03-19T01:50:33;9.13;;;6.00;;
21825;SDS011;11075;47.944;11.776;2023-03-19T01:53:24;10.30;;;5.80;;
21825;SDS011;11075;47.944;11.776;2023-03-19T01:56:11;10.67;;;5.90;;
21825;SDS011;11075;47.944;11.776;2023-03-19T01:58:55;11.13;;;5.60;;
21825;SDS011;11075;47.944;11.776;2023-03-19T02:01:57;9.77;;;5.77;;
21825;SDS011;11075;47.944;11.776;2023-03-19T02:04:32;11.50;;;5.67;;
21825;SDS011;11075;47.944;11.776;2023-03-19T02:07:01;9.37;;;5.77;;
21825;SDS011;11075;47.944;11.776;2023-03-19T02:09:29;10.30;;;5.60;;
21825;SDS011;11075;47.944;11.776;2023-03-19T02:11:58;13.03;;;5.47;;
21825;SDS011;11075;47.944;11.776;2023-03-19T02:14:26;10.03;;;5.67;;
21825;SDS011;11075;47.944;11.776;2023-03-19T02:16:53;10.90;;;4.83;;
21825;SDS011;11075;47.944;11.776;2023-03-19T02:19:26;7.87;;;4.93;;
21825;SDS011;11075;47.944;11.776;2023-03-19T02:22:00;10.70;;;6.60;;
21825;SDS011;11075;47.944;11.776;2023-03-19T02:24:33;16.40;;;7.47;;
21825;SDS011;11075;47.944;11.776;2023-03-19T02:27:08;8.13;;;5.50;;
21825;SDS011;11075;47.944;11.776;2023-03-19T02:29:40;6.80;;;5.20;;
21825;SDS011;11075;47.944;11.776;2023-03-19T02:32:07;11.10;;;5.73;;
21825;SDS011;11075;47.944;11.776;2023-03-19T02:34:36;8.43;;;5.30;;
21825;SDS011;11075;47.944;11.776;2023-03-19T02:37:07;10.07;;;5.57;;
21825;SDS011;11075;47.944;11.776;2023-03-19T02:42:12;9.53;;;5.23;;
21825;SDS011;11075;47.944;11.776;2023-03-19T02:44:41;10.67;;;5.63;;
21825;SDS011;11075;47.944;11.776;2023-03-19T02:47:09;14.87;;;5.30;;
21825;SDS011;11075;47.944;11.776;2023-03-19T02:49:36;10.43;;;4.80;;
21825;SDS011;11075;47.944;11.776;2023-03-19T02:52:03;12.37;;;5.03;;
21825;SDS011;11075;47.944;11.776;2023-03-19T02:54:29;10.10;;;4.70;;
21825;SDS011;11075;47.944;11.776;2023-03-19T02:56:56;9.27;;;4.67;;
21825;SDS011;11075;47.944;11.776;2023-03-19T02:59:24;9.67;;;5.07;;
21825;SDS011;11075;47.944;11.776;2023-03-19T03:01:51;9.87;;;4.83;;
21825;SDS011;11075;47.944;11.776;2023-03-19T03:04:19;9.20;;;4.67;;
21825;SDS011;11075;47.944;11.776;2023-03-19T03:06:46;8.37;;;4.50;;
21825;SDS011;11075;47.944;11.776;2023-03-19T03:09:13;8.03;;;4.13;;
21825;SDS011;11075;47.944;11.776;2023-03-19T03:11:41;6.67;;;4.87;;
21825;SDS011;11075;47.944;11.776;2023-03-19T03:14:08;12.70;;;5.60;;
21825;SDS011;11075;47.944;11.776;2023-03-19T03:16:36;8.23;;;5.70;;
21825;SDS011;11075;47.944;11.776;2023-03-19T03:19:03;11.00;;;6.07;;
21825;SDS011;11075;47.944;11.776;2023-03-19T03:21:31;11.83;;;5.83;;
21825;SDS011;11075;47.944;11.776;2023-03-19T03:24:01;10.40;;;5.87;;
21825;SDS011;11075;47.944;11.776;2023-03-19T03:26:28;12.53;;;5.57;;
21825;SDS011;11075;47.944;11.776;2023-03-19T03:28:55;10.30;;;5.40;;
21825;SDS011;11075;47.944;11.776;2023-03-19T03:31:22;9.73;;;6.00;;
21825;SDS011;11075;47.944;11.776;2023-03-19T03:33:49;10.87;;;5.70;;
21825;SDS011;11075;47.944;11.776;2023-03-19T03:36:16;9.53;;;5.13;;
21825;SDS011;11075;47.944;11.776;2023-03-19T03:38:44;8.30;;;4.73;;
21825;SDS011;11075;47.944;11.776;2023-03-19T03:41:11;12.07;;;5.43;;
21825;SDS011;11075;47.944;11.776;2023-03-19T03:43:39;6.77;;;5.03;;
21825;SDS011;11075;47.944;11.776;2023-03-19T03:46:07;8.03;;;4.57;;
21825;SDS011;11075;47.944;11.776;2023-03-19T03:48:34;9.90;;;5.00;;
21825;SDS011;11075;47.944;11.776;2023-03-19T03:51:02;11.33;;;4.70;;
21825;SDS011;11075;47.944;11.776;2023-03-19T03:53:30;9.43;;;4.70;;
21825;SDS011;11075;47.944;11.776;2023-03-19T03:55:58;8.77;;;5.23;;
21825;SDS011;11075;47.944;11.776;2023-03-19T03:58:27;10.10;;;6.37;;
21825;SDS011;11075;47.944;11.776;2023-03-19T04:00:54;8.03;;;5.33;;
21825;SDS011;11075;47.944;11.776;2023-03-19T04:03:22;9.70;;;5.07;;
21825;SDS011;11075;47.944;11.776;2023-03-19T04:05:50;11.37;;;4.60;;
21825;SDS011;11075;47.944;11.776;2023-03-19T04:08:18;8.73;;;4.27;;
21825;SDS011;11075;47.944;11.776;2023-03-19T04:10:45;9.80;;;4.47;;
21825;SDS011;11075;47.944;11.776;2023-03-19T04:13:12;8.53;;;5.27;;
21825;SDS011;11075;47.944;11.776;2023-03-19T04:15:43;6.23;;;4.67;;
21825;SDS011;11075;47.944;11.776;2023-03-19T04:18:12;8.47;;;4.80;;
21825;SDS011;11075;47.944;11.776;2023-03-19T04:20:40;9.23;;;4.90;;
21825;SDS011;11075;47.944;11.776;2023-03-19T04:23:07;8.10;;;4.33;;
21825;SDS011;11075;47.944;11.776;2023-03-19T04:25:34;7.93;;;4.43;;
21825;SDS011;11075;47.944;11.776;2023-03-19T04:28:00;11.57;;;4.60;;
21825;SDS011;11075;47.944;11.776;2023-03-19T04:30:29;10.73;;;4.60;;
21825;SDS011;11075;47.944;11.776;2023-03-19T04:32:55;8.03;;;4.63;;
21825;SDS011;11075;47.944;11.776;2023-03-19T04:35:22;7.17;;;4.57;;
21825;SDS011;11075;47.944;11.776;2023-03-19T04:37:49;11.30;;;4.37;;
21825;SDS011;11075;47.944;11.776;2023-03-19T04:40:18;9.40;;;4.87;;
21825;SDS011;11075;47.944;11.776;2023-03-19T04:42:47;8.97;;;4.10;;
21825;SDS011;11075;47.944;11.776;2023-03-19T04:45:27;10.73;;;4.73;;
21825;SDS011;11075;47.944;11.776;2023-03-19T04:47:54;9.50;;;4.20;;
21825;SDS011;11075;47.944;11.776;2023-03-19T04:50:22;7.83;;;4.37;;
21825;SDS011;11075;47.944;11.776;2023-03-19T04:52:49;7.80;;;4.33;;
21825;SDS011;11075;47.944;11.776;2023-03-19T04:55:16;9.47;;;4.43;;
21825;SDS011;11075;47.944;11.776;2023-03-19T04:57:58;8.83;;;4.60;;
21825;SDS011;11075;47.944;11.776;2023-03-19T05:00:28;10.10;;;4.10;;
21825;SDS011;11075;47.944;11.776;2023-03-19T05:02:57;10.37;;;4.17;;
21825;SDS011;11075;47.944;11.776;2023-03-19T05:05:26;9.87;;;4.77;;
21825;SDS011;11075;47.944;11.776;2023-03-19T05:07:54;8.53;;;4.47;;
21825;SDS011;11075;47.944;11.776;2023-03-19T05:10:23;13.00;;;4.50;;
21825;SDS011;11075;47.944;11.776;2023-03-19T05:12:50;10.30;;;4.30;;
21825;SDS011;11075;47.944;11.776;2023-03-19T05:15:18;10.80;;;4.03;;
21825;SDS011;11075;47.944;11.776;2023-03-19T05:17:54;12.00;;;4.40;;
21825;SDS011;11075;47.944;11.776;2023-03-19T05:20:26;8.13;;;4.47;;
21825;SDS011;11075;47.944;11.776;2023-03-19T05:23:00;9.77;;;4.90;;
21825;SDS011;11075;47.944;11.776;2023-03-19T05:25:49;10.17;;;4.67;;
21825;SDS011;11075;47.944;11.776;2023-03-19T05:28:22;7.73;;;4.07;;
21825;SDS011;11075;47.944;11.776;2023-03-19T05:30:49;5.70;;;4.07;;
21825;SDS011;11075;47.944;11.776;2023-03-19T05:33:24;11.00;;;4.40;;
21825;SDS011;11075;47.944;11.776;2023-03-19T05:35:52;10.03;;;4.30;;
21825;SDS011;11075;47.944;11.776;2023-03-19T05:38:40;7.83;;;4.03;;
21825;SDS011;11075;47.944;11.776;2023-03-19T05:41:14;9.63;;;4.33;;
21825;SDS011;11075;47.944;11.776;2023-03-19T05:43:53;10.07;;;4.70;;
21825;SDS011;11075;47.944;11.776;2023-03-19T05:46:38;10.60;;;4.90;;
21825;SDS011;11075;47.944;11.776;2023-03-19T05:49:05;10.50;;;5.00;;
21825;SDS011;11075;47.944;11.776;2023-03-19T05:51:32;10.47;;;4.57;;
21825;SDS011;11075;47.944;11.776;2023-03-19T05:53:59;10.33;;;4.93;;
21825;SDS011;11075;47.944;11.776;2023-03-19T05:56:34;11.70;;;5.27;;
21825;SDS011;11075;47.944;11.776;2023-03-19T05:59:21;14.13;;;5.27;;
21825;SDS011;11075;47.944;11.776;2023-03-19T06:02:04;8.50;;;4.50;;
21825;SDS011;11075;47.944;11.776;2023-03-19T06:04:32;15.27;;;5.03;;
21825;SDS011;11075;47.944;11.776;2023-03-19T06:06:59;8.97;;;4.53;;
21825;SDS011;11075;47.944;11.776;2023-03-19T06:09:26;8.63;;;4.20;;
21825;SDS011;11075;47.944;11.776;2023-03-19T06:11:55;5.27;;;3.57;;
21825;SDS011;11075;47.944;11.776;2023-03-19T06:14:44;9.40;;;3.97;;
21825;SDS011;11075;47.944;11.776;2023-03-19T06:17:30;6.17;;;4.10;;
21825;SDS011;11075;47.944;11.776;2023-03-19T06:20:02;7.03;;;3.50;;
21825;SDS011;11075;47.944;11.776;2023-03-19T06:22:29;7.67;;;3.17;;
21825;SDS011;11075;47.944;11.776;2023-03-19T06:24:56;8.63;;;3.97;;
21825;SDS011;11075;47.944;11.776;2023-03-19T06:27:23;5.23;;;3.23;;
21825;SDS011;11075;47.944;11.776;2023-03-19T06:29:56;5.43;;;3.33;;
21825;SDS011;11075;47.944;11.776;2023-03-19T06:32:29;6.27;;;3.80;;
21825;SDS011;11075;47.944;11.776;2023-03-19T06:35:01;6.13;;;3.40;;
21825;SDS011;11075;47.944;11.776;2023-03-19T06:37:28;5.20;;;3.10;;
21825;SDS011;11075;47.944;11.776;2023-03-19T06:39:55;5.97;;;3.53;;
21825;SDS011;11075;47.944;11.776;2023-03-19T06:42:22;9.73;;;3.47;;
21825;SDS011;11075;47.944;11.776;2023-03-19T06:44:50;7.77;;;3.80;;
21825;SDS011;11075;47.944;11.776;2023-03-19T06:47:19;7.43;;;3.23;;
21825;SDS011;11075;47.944;11.776;2023-03-19T06:49:45;8.60;;;3.43;;
21825;SDS011;11075;47.944;11.776;2023-03-19T06:52:12;10.53;;;3.63;;
21825;SDS011;11075;47.944;11.776;2023-03-19T06:54:40;4.47;;;3.13;;
21825;SDS011;11075;47.944;11.776;2023-03-19T06:57:07;6.77;;;3.30;;
21825;SDS011;11075;47.944;11.776;2023-03-19T06:59:33;5.90;;;3.07;;
21825;SDS011;11075;47.944;11.776;2023-03-19T07:02:01;7.43;;;3.33;;
21825;SDS011;11075;47.944;11.776;2023-03-19T07:04:28;10.17;;;3.23;;
21825;SDS011;11075;47.944;11.776;2023-03-19T07:06:56;6.30;;;3.77;;
21825;SDS011;11075;47.944;11.776;2023-03-19T07:09:23;9.70;;;3.80;;
21825;SDS011;11075;47.944;11.776;2023-03-19T07:11:50;5.10;;;3.00;;
21825;SDS011;11075;47.944;11.776;2023-03-19T07:14:16;4.93;;;3.20;;
21825;SDS011;11075;47.944;11.776;2023-03-19T07:16:44;4.83;;;3.23;;
21825;SDS011;11075;47.944;11.776;2023-03-19T07:19:11;6.40;;;3.17;;
21825;SDS011;11075;47.944;11.776;2023-03-19T07:21:38;6.10;;;3.07;;
21825;SDS011;11075;47.944;11.776;2023-03-19T07:24:05;6.60;;;2.80;;
21825;SDS011;11075;47.944;11.776;2023-03-19T07:26:32;5.13;;;3.37;;
21825;SDS011;11075;47.944;11.776;2023-03-19T07:28:59;7.13;;;2.90;;
21825;SDS011;11075;47.944;11.776;2023-03-19T07:31:27;6.17;;;3.20;;
21825;SDS011;11075;47.944;11.776;2023-03-19T07:33:54;6.97;;;2.80;;
21825;SDS011;11075;47.944;11.776;2023-03-19T07:36:21;6.17;;;2.90;;
21825;SDS011;11075;47.944;11.776;2023-03-19T07:38:48;4.87;;;2.67;;
21825;SDS011;11075;47.944;11.776;2023-03-19T07:41:15;6.23;;;2.87;;
21825;SDS011;11075;47.944;11.776;2023-03-19T07:43:42;8.90;;;3.20;;
21825;SDS011;11075;47.944;11.776;2023-03-19T07:46:09;5.47;;;3.03;;
21825;SDS011;11075;47.944;11.776;2023-03-19T07:48:37;4.17;;;2.97;;
21825;SDS011;11075;47.944;11.776;2023-03-19T07:51:03;3.60;;;2.77;;
21825;SDS011;11075;47.944;11.776;2023-03-19T07:53:31;6.17;;;2.57;;
21825;SDS011;11075;47.944;11.776;2023-03-19T07:55:57;5.57;;;2.53;;
21825;SDS011;11075;47.944;11.776;2023-03-19T07:58:24;3.70;;;2.67;;
21825;SDS011;11075;47.944;11.776;2023-03-19T08:00:52;3.27;;;2.50;;
21825;SDS011;11075;47.944;11.776;2023-03-19T08:03:19;3.80;;;2.80;;
21825;SDS011;11075;47.944;11.776;2023-03-19T08:05:49;4.87;;;2.30;;
21825;SDS011;11075;47.944;11.776;2023-03-19T08:08:17;6.27;;;2.53;;
21825;SDS011;11075;47.944;11.776;2023-03-19T08:10:45;4.60;;;2.43;;
21825;SDS011;11075;47.944;11.776;2023-03-19T08:13:13;4.07;;;2.67;;
21825;SDS011;11075;47.944;11.776;2023-03-19T08:15:40;7.07;;;2.47;;
21825;SDS011;11075;47.944;11.776;2023-03-19T08:18:07;4.40;;;2.70;;
21825;SDS011;11075;47.944;11.776;2023-03-19T08:20:34;5.53;;;2.92;;
21825;SDS011;11075;47.944;11.776;2023-03-19T08:23:02;6.00;;;2.35;;
21825;SDS011;11075;47.944;11.776;2023-03-19T08:25:28;4.97;;;2.50;;
21825;SDS011;11075;47.944;11.776;2023-03-19T08:27:58;3.92;;;2.30;;
21825;SDS011;11075;47.944;11.776;2023-03-19T08:30:26;4.40;;;2.47;;
21825;SDS011;11075;47.944;11.776;2023-03-19T08:32:53;3.42;;;2.10;;
21825;SDS011;11075;47.944;11.776;2023-03-19T08:35:20;4.80;;;2.50;;
21825;SDS011;11075;47.944;11.776;2023-03-19T08:37:47;4.60;;;2.63;;
21825;SDS011;11075;47.944;11.776;2023-03-19T08:40:14;3.63;;;2.42;;
21825;SDS011;11075;47.944;11.776;2023-03-19T08:42:41;4.40;;;2.10;;
21825;SDS011;11075;47.944;11.776;2023-03-19T08:45:11;3.55;;;2.30;;
21825;SDS011;11075;47.944;11.776;2023-03-19T08:47:39;2.53;;;2.10;;
21825;SDS011;11075;47.944;11.776;2023-03-19T08:50:07;5.80;;;2.10;;
21825;SDS011;11075;47.944;11.776;2023-03-19T08:52:35;3.70;;;2.22;;
21825;SDS011;11075;47.944;11.776;2023-03-19T08:55:03;5.32;;;2.17;;
21825;SDS011;11075;47.944;11.776;2023-03-19T08:57:30;4.38;;;2.70;;
21825;SDS011;11075;47.944;11.776;2023-03-19T08:59:57;4.85;;;2.53;;
21825;SDS011;11075;47.944;11.776;2023-03-19T09:02:24;6.13;;;2.10;;
21825;SDS011;11075;47.944;11.776;2023-03-19T09:04:52;4.10;;;1.95;;
21825;SDS011;11075;47.944;11.776;2023-03-19T09:07:18;8.70;;;2.55;;
21825;SDS011;11075;47.944;11.776;2023-03-19T09:09:45;3.75;;;1.95;;
21825;SDS011;11075;47.944;11.776;2023-03-19T09:12:13;3.28;;;2.08;;
21825;SDS011;11075;47.944;11.776;2023-03-19T09:14:42;2.38;;;2.00;;
21825;SDS011;11075;47.944;11.776;2023-03-19T09:17:10;3.80;;;2.15;;
21825;SDS011;11075;47.944;11.776;2023-03-19T09:19:38;4.03;;;1.93;;
21825;SDS011;11075;47.944;11.776;2023-03-19T09:22:06;3.13;;;2.00;;
21825;SDS011;11075;47.944;11.776;2023-03-19T09:24:33;4.40;;;2.33;;
21825;SDS011;11075;47.944;11.776;2023-03-19T09:26:59;2.75;;;1.90;;
21825;SDS011;11075;47.944;11.776;2023-03-19T09:29:27;2.78;;;1.80;;
21825;SDS011;11075;47.944;11.776;2023-03-19T09:31:54;7.07;;;2.25;;
21825;SDS011;11075;47.944;11.776;2023-03-19T09:34:21;2.78;;;1.77;;
21825;SDS011;11075;47.944;11.776;2023-03-19T09:36:47;4.78;;;2.63;;
21825;SDS011;11075;47.944;11.776;2023-03-19T09:39:14;3.95;;;2.20;;
21825;SDS011;11075;47.944;11.776;2023-03-19T09:41:51;5.88;;;2.35;;
21825;SDS011;11075;47.944;11.776;2023-03-19T09:44:35;2.88;;;2.00;;
21825;SDS011;11075;47.944;11.776;2023-03-19T09:47:11;5.03;;;2.38;;
21825;SDS011;11075;47.944;11.776;2023-03-19T09:50:12;4.35;;;1.88;;
21825;SDS011;11075;47.944;11.776;2023-03-19T09:55:37;3.08;;;2.30;;
21825;SDS011;11075;47.944;11.776;2023-03-19T09:58:31;4.50;;;2.30;;
21825;SDS011;11075;47.944;11.776;2023-03-19T10:01:02;2.08;;;1.70;;
21825;SDS011;11075;47.944;11.776;2023-03-19T10:17:18;4.60;;;2.53;;
21825;SDS011;11075;47.944;11.776;2023-03-19T10:19:50;3.05;;;2.28;;
21825;SDS011;11075;47.944;11.776;2023-03-19T10:22:22;3.42;;;2.05;;
21825;SDS011;11075;47.944;11.776;2023-03-19T10:24:55;3.25;;;2.20;;
21825;SDS011;11075;47.944;11.776;2023-03-19T10:27:25;5.88;;;2.40;;
21825;SDS011;11075;47.944;11.776;2023-03-19T10:29:57;4.47;;;2.55;;
21825;SDS011;11075;47.944;11.776;2023-03-19T10:32:43;4.95;;;2.25;;
21825;SDS011;11075;47.944;11.776;2023-03-19T10:35:21;3.00;;;2.25;;
21825;SDS011;11075;47.944;11.776;2023-03-19T10:37:53;3.20;;;2.22;;
21825;SDS011;11075;47.944;11.776;2023-03-19T10:40:23;4.35;;;2.20;;
21825;SDS011;11075;47.944;11.776;2023-03-19T10:43:12;5.40;;;2.72;;
21825;SDS011;11075;47.944;11.776;2023-03-19T10:45:41;3.47;;;2.45;;
21825;SDS011;11075;47.944;11.776;2023-03-19T10:48:12;4.85;;;2.33;;
21825;SDS011;11075;47.944;11.776;2023-03-19T10:50:48;3.75;;;2.10;;
21825;SDS011;11075;47.944;11.776;2023-03-19T10:53:32;7.68;;;2.45;;
21825;SDS011;11075;47.944;11.776;2023-03-19T10:56:05;6.35;;;2.20;;
21825;SDS011;11075;47.944;11.776;2023-03-19T10:59:18;4.75;;;2.30;;
21825;SDS011;11075;47.944;11.776;2023-03-19T11:01:46;4.85;;;2.45;;
21825;SDS011;11075;47.944;11.776;2023-03-19T11:06:49;3.60;;;2.38;;
21825;SDS011;11075;47.944;11.776;2023-03-19T11:09:44;2.88;;;2.10;;
21825;SDS011;11075;47.944;11.776;2023-03-19T11:12:16;3.25;;;2.17;;
21825;SDS011;11075;47.944;11.776;2023-03-19T11:14:47;3.70;;;2.40;;
21825;SDS011;11075;47.944;11.776;2023-03-19T11:17:27;4.40;;;2.30;;
21825;SDS011;11075;47.944;11.776;2023-03-19T11:20:48;4.15;;;1.80;;
21825;SDS011;11075;47.944;11.776;2023-03-19T11:22:58;4.65;;;2.08;;
21825;SDS011;11075;47.944;11.776;2023-03-19T11:25:30;4.43;;;1.92;;
21825;SDS011;11075;47.944;11.776;2023-03-19T11:28:05;3.35;;;2.00;;
21825;SDS011;11075;47.944;11.776;2023-03-19T11:33:19;1.95;;;1.77;;
21825;SDS011;11075;47.944;11.776;2023-03-19T11:36:35;2.92;;;1.95;;
21825;SDS011;11075;47.944;11.776;2023-03-19T11:41:17;4.78;;;2.25;;
21825;SDS011;11075;47.944;11.776;2023-03-19T11:43:55;2.42;;;2.00;;
21825;SDS011;11075;47.944;11.776;2023-03-19T11:49:32;5.32;;;2.00;;
21825;SDS011;11075;47.944;11.776;2023-03-19T11:52:13;3.25;;;1.98;;
21825;SDS011;11075;47.944;11.776;2023-03-19T12:03:20;2.65;;;1.70;;
21825;SDS011;11075;47.944;11.776;2023-03-19T12:06:18;3.63;;;1.70;;
21825;SDS011;11075;47.944;11.776;2023-03-19T12:08:58;6.63;;;4.22;;
21825;SDS011;11075;47.944;11.776;2023-03-19T12:28:12;3.30;;;1.88;;
21825;SDS011;11075;47.944;11.776;2023-03-19T12:30:44;3.05;;;1.85;;
21825;SDS011;11075;47.944;11.776;2023-03-19T12:35:54;3.58;;;1.80;;
21825;SDS011;11075;47.944;11.776;2023-03-19T12:38:26;2.08;;;1.50;;
21825;SDS011;11075;47.944;11.776;2023-03-19T12:41:13;2.45;;;1.70;;
21825;SDS011;11075;47.944;11.776;2023-03-19T12:46:35;3.38;;;1.98;;
21825;SDS011;11075;47.944;11.776;2023-03-19T12:49:14;4.20;;;1.95;;
21825;SDS011;11075;47.944;11.776;2023-03-19T12:51:53;3.15;;;2.03;;
21825;SDS011;11075;47.944;11.776;2023-03-19T12:54:40;3.50;;;1.65;;
21825;SDS011;11075;47.944;11.776;2023-03-19T12:57:16;3.97;;;1.95;;
21825;SDS011;11075;47.944;11.776;2023-03-19T13:11:00;2.28;;;1.60;;
21825;SDS011;11075;47.944;11.776;2023-03-19T13:16:28;3.03;;;2.08;;
21825;SDS011;11075;47.944;11.776;2023-03-19T13:21:58;3.38;;;2.03;;
21825;SDS011;11075;47.944;11.776;2023-03-19T13:24:32;4.43;;;2.10;;
21825;SDS011;11075;47.944;11.776;2023-03-19T13:27:05;3.38;;;2.10;;
21825;SDS011;11075;47.944;11.776;2023-03-19T13:29:35;4.60;;;2.35;;
21825;SDS011;11075;47.944;11.776;2023-03-19T13:32:08;13.35;;;2.58;;
21825;SDS011;11075;47.944;11.776;2023-03-19T13:34:49;3.58;;;2.30;;
21825;SDS011;11075;47.944;11.776;2023-03-19T13:37:16;2.00;;;1.80;;
21825;SDS011;11075;47.944;11.776;2023-03-19T13:39:46;2.53;;;2.30;;
21825;SDS011;11075;47.944;11.776;2023-03-19T13:42:22;2.78;;;1.85;;
21825;SDS011;11075;47.944;11.776;2023-03-19T13:50:58;4.55;;;2.00;;
21825;SDS011;11075;47.944;11.776;2023-03-19T13:55:56;2.95;;;1.65;;
21825;SDS011;11075;47.944;11.776;2023-03-19T13:58:25;3.03;;;1.70;;
21825;SDS011;11075;47.944;11.776;2023-03-19T14:03:54;3.80;;;1.95;;
21825;SDS011;11075;47.944;11.776;2023-03-19T14:09:02;4.38;;;1.83;;
21825;SDS011;11075;47.944;11.776;2023-03-19T14:11:31;4.40;;;1.70;;
21825;SDS011;11075;47.944;11.776;2023-03-19T14:14:02;2.55;;;1.95;;
21825;SDS011;11075;47.944;11.776;2023-03-19T14:16:35;4.18;;;1.90;;
21825;SDS011;11075;47.944;11.776;2023-03-19T14:19:10;2.47;;;1.70;;
21825;SDS011;11075;47.944;11.776;2023-03-19T14:22:00;3.83;;;1.55;;
21825;SDS011;11075;47.944;11.776;2023-03-19T14:24:36;4.10;;;1.63;;
21825;SDS011;11075;47.944;11.776;2023-03-19T14:27:27;2.22;;;1.48;;
21825;SDS011;11075;47.944;11.776;2023-03-19T14:30:00;3.22;;;1.38;;
21825;SDS011;11075;47.944;11.776;2023-03-19T14:32:35;3.72;;;1.58;;
21825;SDS011;11075;47.944;11.776;2023-03-19T14:35:09;3.13;;;1.48;;
21825;SDS011;11075;47.944;11.776;2023-03-19T14:37:43;4.00;;;2.20;;
21825;SDS011;11075;47.944;11.776;2023-03-19T14:40:19;7.10;;;1.63;;
21825;SDS011;11075;47.944;11.776;2023-03-19T14:56:51;3.63;;;1.50;;
21825;SDS011;11075;47.944;11.776;2023-03-19T14:59:18;1.85;;;1.63;;
21825;SDS011;11075;47.944;11.776;2023-03-19T15:01:47;3.47;;;1.80;;
21825;SDS011;11075;47.944;11.776;2023-03-19T15:04:17;4.05;;;1.90;;
21825;SDS011;11075;47.944;11.776;2023-03-19T15:06:50;2.78;;;2.00;;
21825;SDS011;11075;47.944;11.776;2023-03-19T15:11:59;2.90;;;2.00;;
21825;SDS011;11075;47.944;11.776;2023-03-19T15:17:46;4.32;;;2.53;;
21825;SDS011;11075;47.944;11.776;2023-03-19T15:20:31;3.60;;;2.00;;
21825;SDS011;11075;47.944;11.776;2023-03-19T15:23:10;4.65;;;2.10;;
21825;SDS011;11075;47.944;11.776;2023-03-19T15:25:53;3.28;;;2.40;;
21825;SDS011;11075;47.944;11.776;2023-03-19T15:28:30;2.38;;;1.73;;
21825;SDS011;11075;47.944;11.776;2023-03-19T15:31:04;4.10;;;2.53;;
21825;SDS011;11075;47.944;11.776;2023-03-19T15:33:52;4.50;;;2.05;;
21825;SDS011;11075;47.944;11.776;2023-03-19T15:36:26;3.40;;;1.98;;
21825;SDS011;11075;47.944;11.776;2023-03-19T15:38:56;2.95;;;2.17;;
21825;SDS011;11075;47.944;11.776;2023-03-19T15:41:32;3.92;;;2.10;;
21825;SDS011;11075;47.944;11.776;2023-03-19T15:44:06;2.88;;;2.08;;
21825;SDS011;11075;47.944;11.776;2023-03-19T15:46:37;3.05;;;1.85;;
21825;SDS011;11075;47.944;11.776;2023-03-19T15:51:43;4.53;;;1.83;;
21825;SDS011;11075;47.944;11.776;2023-03-19T15:54:12;2.55;;;1.40;;
21825;SDS011;11075;47.944;11.776;2023-03-19T15:56:39;3.45;;;1.90;;
21825;SDS011;11075;47.944;11.776;2023-03-19T15:59:06;2.40;;;1.85;;
21825;SDS011;11075;47.944;11.776;2023-03-19T16:01:32;3.70;;;1.60;;
21825;SDS011;11075;47.944;11.776;2023-03-19T16:04:04;4.50;;;1.60;;
21825;SDS011;11075;47.944;11.776;2023-03-19T16:06:36;3.00;;;2.15;;
21825;SDS011;11075;47.944;11.776;2023-03-19T16:09:06;2.63;;;1.75;;
21825;SDS011;11075;47.944;11.776;2023-03-19T16:11:43;4.63;;;2.00;;
21825;SDS011;11075;47.944;11.776;2023-03-19T16:16:44;5.53;;;2.30;;
21825;SDS011;11075;47.944;11.776;2023-03-19T16:21:55;4.85;;;2.33;;
21825;SDS011;11075;47.944;11.776;2023-03-19T16:24:23;7.00;;;2.33;;
21825;SDS011;11075;47.944;11.776;2023-03-19T16:26:56;4.20;;;2.17;;
21825;SDS011;11075;47.944;11.776;2023-03-19T16:34:40;3.70;;;2.65;;
21825;SDS011;11075;47.944;11.776;2023-03-19T16:50:17;3.95;;;3.00;;
21825;SDS011;11075;47.944;11.776;2023-03-19T16:52:47;5.00;;;2.03;;
21825;SDS011;11075;47.944;11.776;2023-03-19T16:55:20;3.70;;;1.73;;
21825;SDS011;11075;47.944;11.776;2023-03-19T16:57:53;6.53;;;1.80;;
21825;SDS011;11075;47.944;11.776;2023-03-19T17:00:21;8.27;;;1.88;;
21825;SDS011;11075;47.944;11.776;2023-03-19T17:02:52;5.97;;;1.83;;
21825;SDS011;11075;47.944;11.776;2023-03-19T17:05:24;6.20;;;1.77;;
21825;SDS011;11075;47.944;11.776;2023-03-19T17:07:52;10.10;;;1.85;;
21825;SDS011;11075;47.944;11.776;2023-03-19T17:10:24;4.00;;;1.50;;
21825;SDS011;11075;47.944;11.776;2023-03-19T17:12:53;4.77;;;1.40;;